| time (UTC) | temp F | wind direction | speed knots | gust knots | rain 1hr in | rain 24hr in | rain mn in | humidity % | barometer mb |
| 20260507210039 | 55 | 321 | 10.4 | 17.4 | 0.00 | 0.00 | 0.00 | 62 | 1007.3 |
| 20260507204526 | 54 | 292 | 12.2 | 17.4 | 0.00 | 0.00 | 0.00 | 69 | 1007.5 |
| 20260507203025 | 53 | 275 | 10.4 | 17.4 | 0.00 | 0.00 | 0.00 | 68 | 1007.6 |
| 20260507201523 | 53 | 321 | 9.6 | 16.5 | 0.00 | 0.00 | 0.00 | 69 | 1007.7 |
| 20260507200024 | 52 | 273 | 12.2 | 17.4 | 0.00 | 0.00 | 0.00 | 69 | 1007.8 |
| 20260507194521 | 52 | 288 | 12.2 | 18.2 | 0.00 | 0.00 | 0.00 | 72 | 1007.9 |
| 20260507193019 | 50 | 360 | 12.2 | 18.2 | 0.00 | 0.00 | 0.00 | 79 | 1008.1 |
| 20260507191519 | 49 | 360 | 13.0 | 19.1 | 0.00 | 0.00 | 0.00 | 78 | 1008.2 |
| 20260507190017 | 53 | 269 | 13.0 | 21.7 | 0.00 | 0.00 | 0.00 | 65 | 1008.3 |
| 20260507184517 | 53 | 283 | 13.0 | 20.0 | 0.00 | 0.00 | 0.00 | 65 | 1008.3 |
| 20260507183012 | 55 | 293 | 13.0 | 19.1 | 0.00 | 0.00 | 0.00 | 56 | 1008.2 |
| 20260507181511 | 57 | 313 | 9.6 | 15.6 | 0.00 | 0.00 | 0.00 | 50 | 1007.9 |
| 20260507180009 | 56 | 304 | 7.8 | 13.0 | 0.00 | 0.00 | 0.00 | 55 | 1008.1 |
| 20260507174512 | 57 | 309 | 10.4 | 18.2 | 0.00 | 0.00 | 0.00 | 52 | 1008.1 |
| 20260507173007 | 57 | 294 | 7.8 | 16.5 | 0.00 | 0.00 | 0.00 | 52 | 1008.0 |
| 20260507171506 | 55 | 265 | 6.1 | 12.2 | 0.00 | 0.00 | 0.00 | 54 | 1008.0 |
| 20260507170004 | 53 | 298 | 8.7 | 14.8 | 0.00 | 0.00 | 0.00 | 61 | 1008.3 |
| 20260507164607 | 57 | 297 | 7.8 | 13.9 | 0.00 | 0.00 | 0.00 | 50 | 1008.4 |
| 20260507163106 | 58 | 355 | 4.3 | 10.4 | 0.00 | 0.00 | 0.00 | 38 | 1008.1 |
| 20260507161556 | 57 | 340 | 5.2 | 10.4 | 0.00 | 0.00 | 0.00 | 39 | 1008.2 |
| 20260507160054 | 58 | 51 | 7.8 | 12.2 | 0.00 | 0.00 | 0.00 | 35 | 1008.3 |
| 20260507154559 | 58 | 5 | 6.1 | 11.3 | 0.00 | 0.00 | 0.00 | 35 | 1008.2 |
| 20260507153052 | 58 | 325 | 7.8 | 16.5 | 0.00 | 0.00 | 0.00 | 33 | 1008.5 |
| 20260507151549 | 57 | 343 | 7.8 | 14.8 | 0.00 | 0.00 | 0.00 | 33 | 1008.8 |
| 20260507150047 | 57 | 331 | 8.7 | 13.9 | 0.00 | 0.00 | 0.00 | 33 | 1008.8 |
| 20260507144544 | 55 | 5 | 6.1 | 13.9 | 0.00 | 0.00 | 0.00 | 37 | 1008.8 |
| 20260507143040 | 54 | 342 | 6.1 | 11.3 | 0.00 | 0.00 | 0.00 | 36 | 1008.8 |
| 20260507141539 | 53 | 355 | 5.2 | 9.6 | 0.00 | 0.00 | 0.00 | 37 | 1008.8 |
| 20260507140032 | 51 | 32 | 1.7 | 4.3 | 0.00 | 0.00 | 0.00 | 41 | 1008.9 |
| 20260507134531 | 50 | 38 | 1.7 | 5.2 | 0.00 | 0.00 | 0.00 | 40 | 1008.9 |
| 20260507133027 | 49 | 360 | 2.6 | 5.2 | 0.00 | 0.00 | 0.00 | 41 | 1008.8 |
| 20260507131524 | 48 | 360 | 2.6 | 7.8 | 0.00 | 0.00 | 0.00 | 42 | 1009.0 |
| 20260507130032 | 48 | 360 | 2.6 | 7.0 | 0.00 | 0.00 | 0.00 | 42 | 1008.9 |
| 20260507124521 | 47 | 360 | 4.3 | 7.0 | 0.00 | 0.00 | 0.00 | 42 | 1008.6 |
| 20260507123016 | 47 | 360 | 5.2 | 8.7 | 0.00 | 0.00 | 0.00 | 42 | 1008.5 |
| 20260507121514 | 46 | 360 | 5.2 | 8.7 | 0.00 | 0.00 | 0.00 | 42 | 1008.5 |
| 20260507120019 | 46 | 360 | 5.2 | 7.8 | 0.00 | 0.00 | 0.00 | 42 | 1008.6 |
| 20260507114506 | 45 | 360 | 6.1 | 9.6 | 0.00 | 0.00 | 0.00 | 42 | 1008.4 |
| 20260507113006 | 44 | 360 | 5.2 | 8.7 | 0.00 | 0.00 | 0.00 | 43 | 1008.4 |
| 20260507111504 | 43 | 360 | 5.2 | 8.7 | 0.00 | 0.00 | 0.00 | 42 | 1008.5 |
| 20260507110004 | 43 | 360 | 5.2 | 7.8 | 0.00 | 0.00 | 0.00 | 41 | 1008.6 |
| 20260507104502 | 44 | 360 | 5.2 | 7.8 | 0.00 | 0.00 | 0.00 | 41 | 1008.7 |
| 20260507103100 | 44 | 360 | 4.3 | 7.8 | 0.00 | 0.00 | 0.00 | 40 | 1008.6 |
| 20260507101600 | 44 | 360 | 5.2 | 8.7 | 0.00 | 0.00 | 0.00 | 40 | 1008.6 |
| 20260507100059 | 44 | 360 | 5.2 | 8.7 | 0.00 | 0.00 | 0.00 | 39 | 1008.5 |
| 20260507094558 | 45 | 360 | 5.2 | 7.8 | 0.00 | 0.00 | 0.00 | 39 | 1008.6 |
| 20260507093059 | 44 | 360 | 5.2 | 7.8 | 0.00 | 0.00 | 0.00 | 39 | 1008.6 |
| 20260507091556 | 45 | 360 | 5.2 | 8.7 | 0.00 | 0.00 | 0.00 | 38 | 1008.6 |
| 20260507090055 | 45 | 360 | 6.1 | 10.4 | 0.00 | 0.00 | 0.00 | 38 | 1008.6 |
| 20260507084554 | 44 | 360 | 7.0 | 10.4 | 0.00 | 0.00 | 0.00 | 38 | 1008.6 |
| 20260507083050 | 44 | 275 | 6.1 | 10.4 | 0.00 | 0.00 | 0.00 | 38 | 1008.8 |
| 20260507081547 | 42 | 360 | 7.0 | 10.4 | 0.00 | 0.00 | 0.00 | 39 | 1008.9 |
| 20260507080046 | 42 | 270 | 6.1 | 8.7 | 0.00 | 0.00 | 0.00 | 38 | 1009.0 |
| 20260507074545 | 42 | 273 | 6.1 | 8.7 | 0.00 | 0.00 | 0.00 | 36 | 1009.2 |
| 20260507073041 | 43 | 271 | 4.3 | 9.6 | 0.00 | 0.00 | 0.00 | 35 | 1009.4 |
| 20260507071600 | 43 | 360 | 5.2 | 7.8 | 0.00 | 0.00 | 0.00 | 35 | 1009.6 |
| 20260507070035 | 42 | 360 | 2.6 | 6.1 | 0.00 | 0.00 | 0.00 | 34 | 1009.9 |
| 20260507064532 | 42 | 297 | 1.7 | 3.5 | 0.00 | 0.00 | 0.00 | 35 | 1010.1 |
| 20260507063032 | 41 | 304 | 0.9 | 2.6 | 0.00 | 0.00 | 0.00 | 34 | 1010.1 |
| 20260507061528 | 41 | 305 | 0.9 | 2.6 | 0.00 | 0.00 | 0.00 | 33 | 1010.4 |
| 20260507060023 | 40 | 305 | 0.0 | 2.6 | 0.00 | 0.00 | 0.00 | 34 | 1010.7 |
| 20260507054522 | 39 | 305 | 1.7 | 2.6 | 0.00 | 0.00 | 0.00 | 35 | 1010.8 |
| 20260507053022 | 39 | 305 | 1.7 | 3.5 | 0.00 | 0.00 | 0.00 | 37 | 1010.9 |
| 20260507051529 | 38 | 306 | 2.6 | 3.5 | 0.00 | 0.00 | 0.00 | 37 | 1011.1 |
| 20260507050022 | 39 | 307 | 1.7 | 4.3 | 0.00 | 0.00 | 0.00 | 37 | 1011.2 |
| 20260507044519 | 39 | 311 | 2.6 | 4.3 | 0.00 | 0.00 | 0.00 | 36 | 1011.3 |
| 20260507043016 | 40 | 312 | 2.6 | 3.5 | 0.00 | 0.00 | 0.00 | 35 | 1011.4 |
| 20260507041515 | 40 | 315 | 1.7 | 2.6 | 0.00 | 0.00 | 0.00 | 35 | 1011.6 |
| 20260507040013 | 41 | 316 | 0.9 | 1.7 | 0.00 | 0.00 | 0.00 | 34 | 1011.7 |
| 20260507034527 | 41 | 317 | 0.9 | 2.6 | 0.00 | 0.00 | 0.00 | 33 | 1011.8 |
| 20260507033018 | 42 | 318 | 0.0 | 2.6 | 0.00 | 0.00 | 0.00 | 32 | 1011.9 |
| 20260507031511 | 43 | 317 | 0.0 | 2.6 | 0.00 | 0.00 | 0.00 | 32 | 1011.9 |
| 20260507030009 | 43 | 318 | 0.0 | 1.7 | 0.00 | 0.00 | 0.00 | 31 | 1012.1 |
| 20260507024510 | 43 | 360 | 0.0 | 1.7 | 0.00 | 0.00 | 0.00 | 31 | 1012.0 |
| 20260507023018 | 44 | 318 | 0.9 | 2.6 | 0.00 | 0.00 | 0.00 | 31 | 1012.0 |
| 20260507021507 | 46 | 317 | 1.7 | 2.6 | 0.00 | 0.00 | 0.00 | 29 | 1012.2 |
| 20260507020007 | 48 | 317 | 1.7 | 4.3 | 0.00 | 0.00 | 0.00 | 27 | 1012.3 |
| 20260507014510 | 49 | 313 | 1.7 | 5.2 | 0.00 | 0.00 | 0.00 | 26 | 1012.1 |
| 20260507013004 | 51 | 306 | 1.7 | 3.5 | 0.00 | 0.00 | 0.00 | 24 | 1012.2 |
| 20260507011505 | 52 | 306 | 2.6 | 7.0 | 0.00 | 0.00 | 0.00 | 24 | 1012.2 |
| 20260507010112 | 53 | 319 | 3.5 | 7.8 | 0.00 | 0.00 | 0.00 | 23 | 1012.3 |
| 20260507004614 | 53 | 292 | 5.2 | 9.6 | 0.00 | 0.00 | 0.00 | 22 | 1012.3 |
| 20260507003059 | 52 | 307 | 5.2 | 10.4 | 0.00 | 0.00 | 0.00 | 23 | 1012.5 |
| 20260507001557 | 52 | 287 | 5.2 | 9.6 | 0.00 | 0.00 | 0.00 | 22 | 1012.7 |
| 20260507000055 | 54 | 303 | 5.2 | 9.6 | 0.00 | 0.00 | 0.00 | 22 | 1012.7 |
| 20260506234554 | 54 | 299 | 5.2 | 9.6 | 0.00 | 0.00 | 0.00 | 22 | 1012.9 |
| 20260506233056 | 52 | 241 | 6.1 | 10.4 | 0.00 | 0.00 | 0.00 | 22 | 1013.3 |
| 20260506231548 | 53 | 311 | 6.1 | 11.3 | 0.00 | 0.00 | 0.00 | 21 | 1013.6 |
| 20260506230044 | 52 | 258 | 7.8 | 13.9 | 0.00 | 0.00 | 0.00 | 21 | 1014.0 |
| 20260506224543 | 52 | 271 | 6.1 | 15.6 | 0.00 | 0.00 | 0.00 | 20 | 1014.3 |
| 20260506223040 | 52 | 262 | 10.4 | 17.4 | 0.00 | 0.00 | 0.00 | 22 | 1014.5 |
| 20260506221538 | 51 | 254 | 7.0 | 13.9 | 0.00 | 0.00 | 0.00 | 22 | 1014.7 |
| 20260506220040 | 52 | 244 | 3.5 | 13.0 | 0.00 | 0.00 | 0.00 | 22 | 1014.8 |
| 20260506214542 | 52 | 223 | 8.7 | 13.9 | 0.00 | 0.00 | 0.00 | 22 | 1015.0 |
| 20260506213033 | 52 | 267 | 8.7 | 15.6 | 0.00 | 0.00 | 0.00 | 22 | 1015.5 |
| 20260506211533 | 51 | 305 | 4.3 | 14.8 | 0.00 | 0.00 | 0.00 | 22 | 1015.9 |